createdAt,value
2019-01-30T00:01:50.932Z,0.35
2019-01-30T00:05:55.993Z,0.33
2019-01-30T00:10:01.142Z,0.35
2019-01-30T00:14:07.310Z,0.30
2019-01-30T00:18:13.403Z,0.26
2019-01-30T00:22:18.503Z,0.24
2019-01-30T00:26:23.573Z,0.17
2019-01-30T00:30:28.948Z,0.21
2019-01-30T00:34:34.030Z,0.19
2019-01-30T00:38:39.104Z,0.16
2019-01-30T00:42:44.222Z,0.04
2019-01-30T00:46:49.272Z,0.04
2019-01-30T00:50:54.404Z,0.06
2019-01-30T00:54:59.412Z,-0.04
2019-01-30T00:59:04.479Z,-0.03
2019-01-30T01:03:09.622Z,-0.12
2019-01-30T01:07:14.737Z,-0.19
2019-01-30T01:11:39.050Z,-0.26
2019-01-30T01:15:50.055Z,-0.39
2019-01-30T01:19:55.256Z,-0.38
2019-01-30T01:24:00.354Z,-0.46
2019-01-30T01:28:44.864Z,-0.53
2019-01-30T01:37:25.519Z,-0.51
2019-01-30T01:41:30.613Z,-0.34
2019-01-30T01:45:35.675Z,-0.47
2019-01-30T01:49:40.792Z,-0.41
2019-01-30T01:54:04.956Z,-0.40
2019-01-30T01:58:10.019Z,-0.22
2019-01-30T02:02:15.151Z,-0.37
2019-01-30T02:06:20.183Z,-0.41
2019-01-30T02:10:25.488Z,-0.39
2019-01-30T02:14:30.725Z,-0.38
2019-01-30T02:18:35.859Z,-0.55
2019-01-30T02:22:40.870Z,-0.46
2019-01-30T02:26:45.940Z,-0.38
2019-01-30T02:30:51.043Z,-0.42
2019-01-30T02:34:56.195Z,-0.50
2019-01-30T02:39:01.282Z,-0.63
2019-01-30T02:43:07.970Z,-0.47
2019-01-30T02:47:12.926Z,-0.57
2019-01-30T02:51:17.997Z,-0.55
2019-01-30T02:55:23.059Z,-0.50
2019-01-30T02:59:28.180Z,-0.59
2019-01-30T03:03:33.292Z,-0.73
2019-01-30T03:07:57.358Z,-0.53
2019-01-30T03:16:18.898Z,-0.70
2019-01-30T03:20:25.696Z,-0.60
2019-01-30T03:24:30.715Z,-0.74
2019-01-30T03:28:35.850Z,-0.74
2019-01-30T03:37:10.426Z,-0.70
2019-01-30T03:41:34.612Z,-0.78
2019-01-30T03:45:40.330Z,-0.72
2019-01-30T03:49:45.372Z,-0.62
2019-01-30T03:53:50.398Z,-0.57
2019-01-30T03:57:55.355Z,-0.51
2019-01-30T04:02:00.446Z,-0.48
2019-01-30T04:06:05.711Z,-0.50
2019-01-30T04:10:13.081Z,-0.49
2019-01-30T04:14:18.154Z,-0.48
2019-01-30T04:18:23.284Z,-0.48
2019-01-30T04:22:28.408Z,-0.46
2019-01-30T04:26:33.505Z,-0.48
2019-01-30T04:30:38.564Z,-0.45
2019-01-30T04:34:43.596Z,-0.46
2019-01-30T04:38:48.649Z,-0.48
2019-01-30T04:42:53.652Z,-0.52
2019-01-30T04:46:58.677Z,-0.55
2019-01-30T04:51:03.725Z,-0.55
2019-01-30T04:55:09.953Z,-0.58
2019-01-30T05:07:40.162Z,-0.61
2019-01-30T05:11:45.320Z,-0.59
2019-01-30T05:20:26.162Z,-0.54
2019-01-30T05:24:31.232Z,-0.45
2019-01-30T05:28:36.261Z,-0.38
2019-01-30T05:32:41.788Z,-0.41
2019-01-30T05:37:05.872Z,-0.40
2019-01-30T05:41:10.930Z,-0.40
2019-01-30T05:50:12.660Z,-0.41
2019-01-30T05:54:37.072Z,-0.42
2019-01-30T06:03:44.290Z,-0.42
2019-01-30T06:08:08.418Z,-0.39
2019-01-30T06:12:32.586Z,-0.40
2019-01-30T06:21:13.717Z,-0.39
2019-01-30T06:30:01.928Z,-0.43
2019-01-30T06:34:07.988Z,-0.41
2019-01-30T06:38:13.056Z,-0.09
2019-01-30T06:42:18.096Z,-0.02
2019-01-30T06:46:23.297Z,0.03
2019-01-30T06:50:28.418Z,0.42
2019-01-30T06:54:34.412Z,0.17
2019-01-30T06:58:39.459Z,1.01
2019-01-30T07:07:01.204Z,0.43
2019-01-30T07:11:25.588Z,0.73
2019-01-30T07:15:49.725Z,-0.09
2019-01-30T07:20:13.861Z,-0.35
2019-01-30T07:24:37.921Z,-0.46
2019-01-30T07:32:59.641Z,-0.46
2019-01-30T07:37:23.783Z,-0.40
2019-01-30T07:42:07.067Z,-0.35
2019-01-30T07:46:23.590Z,-0.30
2019-01-30T07:55:04.304Z,-0.21
2019-01-30T07:59:21.306Z,-0.17
2019-01-30T08:03:26.381Z,-0.11
2019-01-30T08:07:31.462Z,-0.08
2019-01-30T08:11:36.502Z,0.00
2019-01-30T08:15:42.489Z,-0.12
2019-01-30T08:19:47.517Z,-0.22
2019-01-30T08:23:52.566Z,-0.58
2019-01-30T08:27:58.132Z,-0.70
2019-01-30T08:32:03.262Z,-0.69
2019-01-30T08:36:08.290Z,-0.83
2019-01-30T08:40:13.447Z,-0.79
2019-01-30T08:44:18.662Z,-0.75
2019-01-30T08:48:23.818Z,-0.95
2019-01-30T08:52:28.866Z,-0.74
2019-01-30T08:56:38.902Z,-0.80
2019-01-30T09:00:40.736Z,-0.86
2019-01-30T09:04:45.840Z,-0.82
2019-01-30T09:08:50.931Z,-0.73
2019-01-30T09:12:57.299Z,-0.81
2019-01-30T09:17:02.405Z,-0.78
2019-01-30T09:21:07.411Z,-0.76
2019-01-30T09:25:14.775Z,-0.83
2019-01-30T09:29:19.724Z,-0.74
2019-01-30T09:33:26.390Z,-0.75
2019-01-30T09:37:31.628Z,-0.77
2019-01-30T09:41:36.592Z,-0.79
2019-01-30T09:45:41.648Z,-0.67
2019-01-30T09:49:46.810Z,-0.51
2019-01-30T09:53:51.810Z,-0.54
2019-01-30T09:57:56.823Z,-0.50
2019-01-30T10:02:01.851Z,-0.52
2019-01-30T10:06:06.994Z,-0.46
2019-01-30T10:10:15.408Z,-0.41
2019-01-30T10:14:20.521Z,-0.36
2019-01-30T10:18:25.579Z,-0.35
2019-01-30T10:22:30.832Z,-0.23
2019-01-30T10:26:35.794Z,-0.32
2019-01-30T10:30:43.497Z,-0.35
2019-01-30T10:34:48.478Z,-0.13
2019-01-30T10:38:53.543Z,-0.04
2019-01-30T10:42:58.656Z,-0.32
2019-01-30T10:47:03.685Z,-0.15
2019-01-30T10:51:08.710Z,-0.38
2019-01-30T10:55:16.493Z,-0.32
2019-01-30T10:59:21.520Z,-0.22
2019-01-30T11:03:26.569Z,-0.21
2019-01-30T11:07:31.580Z,-0.28
2019-01-30T11:11:36.638Z,-0.10
2019-01-30T11:15:41.770Z,-0.03
2019-01-30T11:19:46.817Z,0.07
2019-01-30T11:23:51.953Z,-0.29
2019-01-30T11:27:57.005Z,-0.21
2019-01-30T11:32:02.100Z,-0.20
2019-01-30T11:36:07.132Z,-0.01
2019-01-30T11:40:13.466Z,-0.16
2019-01-30T11:44:18.487Z,0.01
2019-01-30T11:48:23.425Z,0.43
2019-01-30T11:52:28.565Z,0.27
2019-01-30T11:56:33.596Z,0.31
2019-01-30T12:00:42.580Z,0.25
2019-01-30T12:04:47.541Z,0.27
2019-01-30T12:08:52.660Z,0.02
2019-01-30T12:12:57.678Z,0.06
2019-01-30T12:17:02.708Z,-0.14
2019-01-30T12:21:07.745Z,0.03
2019-01-30T12:25:14.217Z,0.10
2019-01-30T12:29:19.472Z,0.05
2019-01-30T12:33:24.514Z,-0.22
2019-01-30T12:37:29.559Z,0.23
2019-01-30T12:41:35.801Z,-0.07
2019-01-30T12:45:40.989Z,-0.23
2019-01-30T12:49:46.030Z,0.39
2019-01-30T12:53:51.091Z,0.23
2019-01-30T12:57:56.257Z,-0.04
2019-01-30T13:02:01.297Z,0.31
2019-01-30T13:06:06.568Z,0.13
2019-01-30T13:10:11.667Z,0.10
2019-01-30T13:14:16.732Z,0.23
2019-01-30T13:18:21.749Z,-0.27
2019-01-30T13:22:26.763Z,-0.20
2019-01-30T13:26:31.848Z,-0.31
2019-01-30T13:30:43.618Z,-0.29
2019-01-30T13:34:49.039Z,-0.44
2019-01-30T13:38:54.372Z,-0.39
2019-01-30T13:42:59.502Z,-0.29
2019-01-30T13:47:04.507Z,-0.08
2019-01-30T13:51:11.342Z,0.17
2019-01-30T13:55:16.372Z,0.13
2019-01-30T13:59:21.484Z,0.41
2019-01-30T14:03:26.498Z,0.47
2019-01-30T14:07:31.512Z,0.16
2019-01-30T14:11:36.560Z,0.02
2019-01-30T14:15:41.585Z,0.10
2019-01-30T14:19:46.631Z,0.05
2019-01-30T14:23:51.595Z,0.08
2019-01-30T14:27:56.646Z,0.19
2019-01-30T14:32:01.674Z,0.34
2019-01-30T14:36:06.711Z,0.14
2019-01-30T14:40:12.696Z,0.22
2019-01-30T14:44:17.811Z,0.45
2019-01-30T14:48:22.807Z,0.22
2019-01-30T14:52:27.844Z,0.20
2019-01-30T14:56:32.860Z,0.19
2019-01-30T15:00:37.949Z,0.17
2019-01-30T15:04:42.968Z,0.15
2019-01-30T15:08:48.043Z,0.14
2019-01-30T15:12:53.051Z,0.15
2019-01-30T15:16:58.093Z,0.01
2019-01-30T15:21:03.033Z,0.01
2019-01-30T15:25:09.044Z,0.04
2019-01-30T15:29:14.042Z,0.09
2019-01-30T15:33:20.018Z,0.05
2019-01-30T15:37:25.057Z,0.01
2019-01-30T15:41:30.098Z,0.04
2019-01-30T15:45:35.276Z,0.06
2019-01-30T15:49:40.251Z,0.04
2019-01-30T15:53:45.287Z,0.00
2019-01-30T15:57:53.105Z,-0.05
2019-01-30T16:01:58.261Z,-0.08
2019-01-30T16:06:14.882Z,-0.15
2019-01-30T16:10:20.652Z,-0.20
2019-01-30T16:14:26.688Z,-0.19
2019-01-30T16:18:31.751Z,-0.20
2019-01-30T16:22:36.825Z,-0.23
2019-01-30T16:26:41.987Z,-0.17
2019-01-30T16:30:47.164Z,-0.16
2019-01-30T16:34:52.283Z,-0.25
2019-01-30T16:38:57.495Z,-0.26
2019-01-30T16:43:02.703Z,-0.20
2019-01-30T16:47:26.945Z,-0.22
2019-01-30T16:51:32.032Z,-0.19
2019-01-30T16:55:37.996Z,-0.20
2019-01-30T16:59:49.466Z,-0.19
2019-01-30T17:03:54.579Z,-0.17
2019-01-30T17:08:18.704Z,-0.25
2019-01-30T17:16:40.525Z,-0.20
2019-01-30T17:20:45.602Z,-0.14
2019-01-30T17:24:50.720Z,-0.25
2019-01-30T17:28:55.722Z,-0.20
2019-01-30T17:33:00.900Z,-0.24
2019-01-30T17:37:06.293Z,-0.18
2019-01-30T17:41:11.361Z,-0.13
2019-01-30T17:45:16.641Z,-0.17
2019-01-30T17:49:21.681Z,-0.19
2019-01-30T17:53:26.834Z,-0.14
2019-01-30T17:57:31.976Z,-0.16
2019-01-30T18:01:37.157Z,-0.11
2019-01-30T18:05:42.277Z,-0.20
2019-01-30T18:09:47.354Z,-0.17
2019-01-30T18:13:52.413Z,-0.19
2019-01-30T18:17:57.640Z,-0.09
2019-01-30T18:22:03.029Z,-0.16
2019-01-30T18:26:09.054Z,-0.12
2019-01-30T18:30:16.374Z,-0.13
2019-01-30T18:34:22.621Z,-0.18
2019-01-30T18:38:27.757Z,-0.10
2019-01-30T18:42:32.920Z,-0.17
2019-01-30T18:46:38.045Z,-0.06
2019-01-30T18:50:45.866Z,-0.15
2019-01-30T18:54:50.629Z,-0.13
2019-01-30T18:58:55.745Z,-0.10
2019-01-30T19:03:02.270Z,-0.13
2019-01-30T19:07:07.503Z,-0.04
2019-01-30T19:11:12.650Z,-0.12
2019-01-30T19:15:19.557Z,-0.12
2019-01-30T19:19:24.988Z,-0.08
2019-01-30T19:23:30.146Z,-0.07
2019-01-30T19:27:35.255Z,-0.10
2019-01-30T19:31:40.318Z,-0.04
2019-01-30T19:35:45.520Z,-0.10
2019-01-30T19:39:50.567Z,-0.09
2019-01-30T19:43:55.964Z,-0.05
2019-01-30T19:48:01.243Z,-0.01
2019-01-30T19:52:07.309Z,0.02
2019-01-30T19:56:12.667Z,0.07
2019-01-30T20:00:23.375Z,0.11
2019-01-30T20:04:28.626Z,0.10
2019-01-30T20:08:34.086Z,0.16
2019-01-30T20:12:39.207Z,0.09
2019-01-30T20:16:44.299Z,0.15
2019-01-30T20:20:49.509Z,0.12
2019-01-30T20:24:54.744Z,0.08
2019-01-30T20:29:00.083Z,0.08
2019-01-30T20:33:05.727Z,0.10
2019-01-30T20:37:11.056Z,0.10
2019-01-30T20:41:16.302Z,0.15
2019-01-30T20:45:33.063Z,0.15
2019-01-30T20:49:28.237Z,0.14
2019-01-30T20:53:33.348Z,0.18
2019-01-30T20:57:38.534Z,0.20
2019-01-30T21:01:43.614Z,0.22
2019-01-30T21:05:49.089Z,0.18
2019-01-30T21:09:54.243Z,0.15
2019-01-30T21:13:59.216Z,0.08
2019-01-30T21:18:04.285Z,0.08
2019-01-30T21:22:09.700Z,0.09
2019-01-30T21:26:14.773Z,0.10
2019-01-30T21:30:31.426Z,0.07
2019-01-30T21:34:36.333Z,0.04
2019-01-30T21:38:41.459Z,0.01
2019-01-30T21:42:46.812Z,-0.03
2019-01-30T21:46:51.811Z,-0.08
2019-01-30T21:50:56.829Z,-0.11
2019-01-30T21:55:01.799Z,-0.18
2019-01-30T21:59:06.906Z,-0.29
2019-01-30T22:03:12.002Z,-0.33
2019-01-30T22:07:17.283Z,-0.40
2019-01-30T22:11:22.400Z,-0.53
2019-01-30T22:15:27.524Z,-0.53
2019-01-30T22:19:32.564Z,-0.53
2019-01-30T22:23:37.599Z,-0.57
2019-01-30T22:27:42.623Z,-0.65
2019-01-30T22:31:47.634Z,-0.74
2019-01-30T22:35:52.650Z,-0.85
2019-01-30T22:39:57.653Z,-0.80
2019-01-30T22:44:02.648Z,-0.83
2019-01-30T22:48:07.776Z,-0.87
2019-01-30T22:52:12.685Z,-0.95
2019-01-30T22:56:17.754Z,-0.90
2019-01-30T23:00:31.008Z,-1.02
2019-01-30T23:05:04.185Z,-1.11
2019-01-30T23:09:47.588Z,-1.14
2019-01-30T23:13:56.721Z,-1.24
2019-01-30T23:18:35.193Z,-1.22
2019-01-30T23:23:29.111Z,-1.34
2019-01-30T23:27:49.655Z,-1.44
2019-01-30T23:32:00.243Z,-1.44
2019-01-30T23:36:38.848Z,-1.48
2019-01-30T23:40:51.934Z,-1.53
2019-01-30T23:45:13.707Z,-1.50
2019-01-30T23:49:54.347Z,-1.50
2019-01-30T23:54:24.183Z,-1.60
2019-01-30T23:58:58.645Z,-1.62
